createdAt,value
2024-02-22T00:00:33.472Z,76.89
2024-02-22T00:01:35.843Z,76.87
2024-02-22T00:02:39.632Z,76.82
2024-02-22T00:03:41.832Z,76.77
2024-02-22T00:04:44.650Z,76.80
2024-02-22T00:05:46.955Z,76.95
2024-02-22T00:06:49.259Z,77.01
2024-02-22T00:07:52.606Z,77.23
2024-02-22T00:08:54.850Z,77.20
2024-02-22T00:09:58.484Z,77.06
2024-02-22T00:11:00.808Z,77.28
2024-02-22T00:12:03.349Z,77.25
2024-02-22T00:13:05.610Z,77.39
2024-02-22T00:14:08.478Z,77.49
2024-02-22T00:15:12.214Z,77.51
2024-02-22T00:16:18.011Z,77.97
2024-02-22T00:17:21.595Z,77.79
2024-02-22T00:18:24.495Z,78.00
2024-02-22T00:19:26.908Z,78.04
2024-02-22T00:20:29.187Z,77.91
2024-02-22T00:21:31.431Z,77.82
2024-02-22T00:22:33.692Z,78.05
2024-02-22T00:23:36.310Z,78.16
2024-02-22T00:24:39.472Z,78.21
2024-02-22T00:25:41.829Z,78.18
2024-02-22T00:26:44.046Z,78.20
2024-02-22T00:27:46.282Z,78.16
2024-02-22T00:28:48.537Z,78.29
2024-02-22T00:29:50.770Z,78.24
2024-02-22T00:30:52.998Z,78.50
2024-02-22T00:31:55.320Z,78.66
2024-02-22T00:32:58.250Z,78.75
2024-02-22T00:34:00.566Z,78.82
2024-02-22T00:35:03.033Z,79.09
2024-02-22T00:36:05.585Z,78.88
2024-02-22T00:37:08.448Z,78.95
2024-02-22T00:38:10.879Z,79.18
2024-02-22T00:39:13.292Z,79.13
2024-02-22T00:40:16.921Z,79.20
2024-02-22T00:41:22.321Z,79.21
2024-02-22T00:42:24.968Z,79.25
2024-02-22T00:43:27.327Z,79.15
2024-02-22T00:44:29.678Z,79.26
2024-02-22T00:45:35.261Z,79.51
2024-02-22T00:46:37.693Z,79.77
2024-02-22T00:47:40.004Z,79.83
2024-02-22T00:48:42.351Z,79.82
2024-02-22T00:49:44.809Z,79.96
2024-02-22T00:50:47.333Z,80.00
2024-02-22T00:51:49.638Z,80.04
2024-02-22T00:52:52.364Z,80.18
2024-02-22T00:53:54.676Z,80.36
2024-02-22T00:54:56.939Z,80.24
2024-02-22T00:55:59.195Z,80.40
2024-02-22T00:57:01.465Z,80.33
2024-02-22T00:58:05.512Z,80.40
2024-02-22T00:59:08.427Z,80.56
2024-02-22T01:00:12.718Z,80.54
2024-02-22T01:01:16.422Z,80.61
2024-02-22T01:02:18.717Z,80.53
2024-02-22T01:03:20.985Z,80.57
2024-02-22T01:04:23.344Z,80.60
2024-02-22T01:05:25.760Z,80.53
2024-02-22T01:06:28.147Z,80.44
2024-02-22T01:07:30.441Z,80.36
2024-02-22T01:08:32.750Z,80.45
2024-02-22T01:09:35.027Z,80.61
2024-02-22T01:10:37.303Z,80.79
2024-02-22T01:11:39.790Z,80.72
2024-02-22T01:12:42.257Z,80.90
2024-02-22T01:13:44.549Z,80.86
2024-02-22T01:14:46.801Z,81.10
2024-02-22T01:15:49.148Z,81.22
2024-02-22T01:16:51.677Z,81.06
2024-02-22T01:17:53.999Z,81.12
2024-02-22T01:18:56.465Z,81.17
2024-02-22T01:19:59.068Z,81.13
2024-02-22T01:21:01.353Z,81.04
2024-02-22T01:22:03.833Z,81.13
2024-02-22T01:23:07.975Z,81.16
2024-02-22T01:24:10.493Z,81.02
2024-02-22T01:25:13.019Z,81.04
2024-02-22T01:26:16.479Z,81.15
2024-02-22T01:27:18.808Z,81.05
2024-02-22T01:28:21.229Z,81.36
2024-02-22T01:29:23.534Z,81.38
2024-02-22T01:30:25.799Z,81.54
2024-02-22T01:31:28.051Z,81.25
2024-02-22T01:32:30.357Z,81.00
2024-02-22T01:33:32.829Z,81.19
2024-02-22T01:34:35.412Z,81.21
2024-02-22T01:35:37.733Z,81.42
2024-02-22T01:36:39.966Z,81.38
2024-02-22T01:37:42.853Z,81.15
2024-02-22T01:38:45.174Z,81.23
2024-02-22T01:39:47.505Z,81.03
2024-02-22T01:40:49.906Z,81.25
2024-02-22T01:41:52.168Z,81.23
2024-02-22T01:42:55.483Z,81.12
2024-02-22T01:43:57.758Z,81.14
2024-02-22T01:45:04.112Z,81.20
2024-02-22T01:46:06.429Z,81.47
2024-02-22T01:47:08.859Z,81.13
2024-02-22T01:48:11.370Z,81.46
2024-02-22T01:49:13.746Z,81.23
2024-02-22T01:50:19.000Z,81.45
2024-02-22T01:51:21.892Z,81.26
2024-02-22T01:52:24.193Z,81.40
2024-02-22T01:53:27.977Z,81.67
2024-02-22T01:54:30.244Z,81.77
2024-02-22T01:55:32.617Z,81.61
2024-02-22T01:56:35.103Z,81.58
2024-02-22T01:57:37.855Z,81.43
2024-02-22T01:58:40.459Z,81.74
2024-02-22T01:59:42.814Z,81.53
2024-02-22T02:00:45.163Z,81.37
2024-02-22T02:01:49.390Z,81.67
2024-02-22T02:02:51.732Z,81.38
2024-02-22T02:03:54.726Z,81.42
2024-02-22T02:04:57.484Z,81.52
2024-02-22T02:06:00.849Z,81.47
2024-02-22T02:07:03.102Z,81.50
2024-02-22T02:08:05.767Z,81.53
2024-02-22T02:09:09.431Z,81.60
2024-02-22T02:10:11.714Z,81.55
2024-02-22T02:11:14.085Z,81.57
2024-02-22T02:12:24.264Z,81.79
2024-02-22T02:13:26.566Z,81.86
2024-02-22T02:14:28.825Z,81.93
2024-02-22T02:15:31.109Z,82.10
2024-02-22T02:16:33.442Z,82.09
2024-02-22T02:17:35.894Z,82.10
2024-02-22T02:18:39.984Z,81.85
2024-02-22T02:19:42.521Z,81.88
2024-02-22T02:21:00.147Z,81.55
2024-02-22T02:22:12.699Z,81.82
2024-02-22T02:23:28.758Z,81.78
2024-02-22T02:24:34.603Z,81.88
2024-02-22T02:25:37.110Z,81.46
2024-02-22T02:26:39.523Z,81.58
2024-02-22T02:27:42.062Z,81.70
2024-02-22T02:28:44.383Z,81.69
2024-02-22T02:29:47.309Z,81.65
2024-02-22T02:30:49.564Z,81.79
2024-02-22T02:31:51.985Z,81.61
2024-02-22T02:32:54.362Z,81.63
2024-02-22T02:33:56.658Z,81.76
2024-02-22T02:34:59.152Z,81.64
2024-02-22T02:36:01.427Z,81.59
2024-02-22T02:37:03.730Z,81.46
2024-02-22T02:38:10.772Z,81.25
2024-02-22T02:39:13.661Z,81.39
2024-02-22T02:40:15.921Z,81.16
2024-02-22T02:41:18.353Z,81.22
2024-02-22T02:42:20.627Z,81.41
2024-02-22T02:43:22.863Z,81.16
2024-02-22T02:44:25.176Z,81.12
2024-02-22T02:45:27.922Z,80.88
2024-02-22T02:46:30.240Z,80.96
2024-02-22T02:47:32.578Z,81.05
2024-02-22T02:48:34.909Z,81.08
2024-02-22T02:49:37.222Z,80.92
2024-02-22T02:50:39.498Z,80.92
2024-02-22T02:51:41.781Z,80.97
2024-02-22T02:52:44.043Z,80.97
2024-02-22T02:53:46.430Z,81.00
2024-02-22T02:54:48.670Z,80.92
2024-02-22T02:55:50.927Z,81.04
2024-02-22T02:56:53.153Z,80.96
2024-02-22T02:57:55.837Z,81.21
2024-02-22T02:58:58.779Z,81.09
2024-02-22T03:00:01.008Z,81.51
2024-02-22T03:01:03.263Z,81.18
2024-02-22T03:02:05.595Z,81.11
2024-02-22T03:03:07.862Z,81.15
2024-02-22T03:04:10.134Z,81.37
2024-02-22T03:05:12.983Z,81.01
2024-02-22T03:06:15.503Z,80.97
2024-02-22T03:07:17.757Z,81.13
2024-02-22T03:08:20.021Z,81.09
2024-02-22T03:09:22.393Z,81.14
2024-02-22T03:10:25.152Z,81.07
2024-02-22T03:11:27.529Z,81.12
2024-02-22T03:12:29.862Z,80.90
2024-02-22T03:13:32.184Z,81.31
2024-02-22T03:14:34.458Z,81.23
2024-02-22T03:15:39.422Z,81.37
2024-02-22T03:16:41.716Z,81.36
2024-02-22T03:17:43.981Z,81.24
2024-02-22T03:18:46.240Z,81.49
2024-02-22T03:19:48.601Z,81.21
2024-02-22T03:20:51.893Z,81.15
2024-02-22T03:21:54.139Z,81.50
2024-02-22T03:22:56.487Z,81.64
2024-02-22T03:23:59.018Z,81.62
2024-02-22T03:25:01.332Z,81.56
2024-02-22T03:26:04.459Z,81.43
2024-02-22T03:27:12.086Z,81.70
2024-02-22T03:28:16.416Z,81.56
2024-02-22T03:29:18.731Z,81.54
2024-02-22T03:30:21.346Z,81.46
2024-02-22T03:31:23.978Z,81.37
2024-02-22T03:32:26.740Z,81.24
2024-02-22T03:33:29.505Z,81.02
2024-02-22T03:34:33.583Z,80.95
2024-02-22T03:35:38.309Z,80.79
2024-02-22T03:36:43.122Z,80.91
2024-02-22T03:37:45.558Z,80.99
2024-02-22T03:38:48.239Z,81.41
2024-02-22T03:39:51.138Z,80.98
2024-02-22T03:40:55.161Z,80.99
2024-02-22T03:41:57.910Z,81.06
2024-02-22T03:43:00.209Z,80.85
2024-02-22T03:44:02.544Z,81.01
2024-02-22T03:45:06.582Z,80.74
2024-02-22T03:46:08.859Z,80.86
2024-02-22T03:47:12.676Z,80.60
2024-02-22T03:48:15.100Z,80.65
2024-02-22T03:49:17.457Z,80.78
2024-02-22T03:50:19.855Z,80.48
2024-02-22T03:51:23.726Z,80.68
2024-02-22T03:52:25.977Z,80.73
2024-02-22T03:53:28.262Z,80.62
2024-02-22T03:54:32.291Z,80.54
2024-02-22T03:55:34.655Z,80.75
2024-02-22T03:56:37.694Z,80.83
2024-02-22T03:57:39.940Z,80.68
2024-02-22T03:58:42.232Z,80.82
2024-02-22T03:59:44.469Z,80.87
2024-02-22T04:00:46.810Z,80.95
2024-02-22T04:01:51.075Z,80.82
2024-02-22T04:02:54.719Z,80.93
2024-02-22T04:03:57.186Z,80.75
2024-02-22T04:05:01.988Z,80.87
2024-02-22T04:06:04.564Z,81.04
2024-02-22T04:07:08.831Z,80.99
2024-02-22T04:08:11.119Z,81.07
2024-02-22T04:09:13.358Z,80.95
2024-02-22T04:10:15.900Z,81.19
2024-02-22T04:11:18.809Z,80.84
2024-02-22T04:12:21.273Z,80.90
2024-02-22T04:13:23.535Z,81.08
2024-02-22T04:14:25.746Z,81.12
2024-02-22T04:15:28.009Z,80.94
2024-02-22T04:16:30.332Z,81.04
2024-02-22T04:17:32.634Z,81.20
2024-02-22T04:18:35.256Z,81.16
2024-02-22T04:19:38.264Z,81.06
2024-02-22T04:20:40.525Z,80.88
2024-02-22T04:21:42.967Z,81.15
2024-02-22T04:22:48.163Z,80.99
2024-02-22T04:23:50.531Z,80.99
2024-02-22T04:24:53.011Z,81.04
2024-02-22T04:25:56.170Z,81.07
2024-02-22T04:27:00.458Z,81.29
2024-02-22T04:28:02.795Z,81.39
2024-02-22T04:29:05.124Z,81.36
2024-02-22T04:30:07.922Z,81.27
2024-02-22T04:31:10.335Z,81.36
2024-02-22T04:32:12.631Z,81.35
2024-02-22T04:33:15.728Z,81.47
2024-02-22T04:34:18.134Z,81.23
2024-02-22T04:35:21.274Z,81.40
2024-02-22T04:36:23.617Z,81.40
2024-02-22T04:37:25.851Z,81.39
2024-02-22T04:38:28.224Z,81.18
2024-02-22T04:39:30.691Z,81.28
2024-02-22T04:40:32.943Z,81.37
2024-02-22T04:41:35.513Z,81.39
2024-02-22T04:42:37.830Z,81.22
2024-02-22T04:43:40.100Z,81.20
2024-02-22T04:44:42.387Z,81.19
2024-02-22T04:45:44.787Z,81.34
2024-02-22T04:46:47.111Z,81.31
2024-02-22T04:47:51.763Z,81.23
2024-02-22T04:48:54.173Z,81.20
2024-02-22T04:49:57.486Z,81.30
2024-02-22T04:50:59.760Z,80.94
2024-02-22T04:52:04.534Z,81.14
2024-02-22T04:53:07.692Z,81.32
2024-02-22T04:54:10.414Z,81.18
2024-02-22T04:55:12.662Z,81.36
2024-02-22T04:56:14.990Z,81.49
2024-02-22T04:57:17.228Z,81.45
2024-02-22T04:58:19.507Z,81.43
2024-02-22T04:59:21.870Z,81.42
2024-02-22T05:00:24.120Z,81.26
2024-02-22T05:01:27.974Z,81.22
2024-02-22T05:02:30.314Z,81.25
2024-02-22T05:03:32.617Z,81.22
2024-02-22T05:04:34.939Z,81.26
2024-02-22T05:05:37.282Z,81.40
2024-02-22T05:06:39.643Z,81.37
2024-02-22T05:07:41.915Z,81.39
2024-02-22T05:08:44.167Z,81.62
2024-02-22T05:09:46.735Z,81.30
2024-02-22T05:10:49.029Z,81.41
2024-02-22T05:11:51.447Z,80.95
2024-02-22T05:12:53.727Z,80.88
2024-02-22T05:13:58.561Z,81.02
2024-02-22T05:15:01.076Z,81.17
2024-02-22T05:16:03.630Z,80.96
2024-02-22T05:17:05.939Z,81.17
2024-02-22T05:18:08.300Z,80.90
2024-02-22T05:19:10.762Z,81.13
2024-02-22T05:20:13.179Z,80.90
2024-02-22T05:21:15.511Z,80.95
2024-02-22T05:22:17.747Z,81.18
2024-02-22T05:23:20.058Z,81.49
2024-02-22T05:24:22.980Z,81.57
2024-02-22T05:25:26.604Z,81.64
2024-02-22T05:26:30.110Z,81.21
2024-02-22T05:27:32.387Z,81.30
2024-02-22T05:28:35.028Z,81.38
2024-02-22T05:29:38.012Z,81.13
2024-02-22T05:30:40.308Z,80.69
2024-02-22T05:31:42.617Z,80.80
2024-02-22T05:32:44.989Z,80.59
2024-02-22T05:33:47.282Z,80.50
2024-02-22T05:34:49.608Z,80.64
2024-02-22T05:35:51.898Z,80.41
2024-02-22T05:36:54.184Z,80.57
2024-02-22T05:37:56.436Z,80.30
2024-02-22T05:39:02.540Z,80.39
2024-02-22T05:40:09.501Z,80.47
2024-02-22T05:41:12.003Z,80.60
2024-02-22T05:42:15.140Z,80.48
2024-02-22T05:43:18.104Z,80.61
2024-02-22T05:44:20.888Z,80.54
2024-02-22T05:45:47.033Z,80.88
2024-02-22T05:46:49.632Z,80.90
2024-02-22T05:47:52.009Z,80.68
2024-02-22T05:48:54.439Z,80.80
2024-02-22T05:49:56.795Z,80.64
2024-02-22T05:50:59.183Z,81.05
2024-02-22T05:52:01.449Z,80.79
2024-02-22T05:53:03.990Z,81.04
2024-02-22T05:54:06.309Z,80.98
2024-02-22T05:55:09.047Z,80.86
2024-02-22T05:56:11.453Z,80.63
2024-02-22T05:57:13.941Z,80.78
2024-02-22T05:58:17.883Z,80.79
2024-02-22T05:59:20.157Z,80.79
2024-02-22T06:00:22.417Z,80.59
2024-02-22T06:01:24.692Z,80.53
2024-02-22T06:02:27.266Z,80.26
2024-02-22T06:03:29.587Z,80.15
2024-02-22T06:04:31.924Z,80.19
2024-02-22T06:05:35.221Z,79.89
2024-02-22T06:06:37.549Z,79.79
2024-02-22T06:07:40.002Z,79.61
2024-02-22T06:08:44.031Z,79.62
2024-02-22T06:09:46.316Z,79.39
2024-02-22T06:10:48.716Z,78.91
2024-02-22T06:11:51.105Z,79.18
2024-02-22T06:12:53.392Z,78.71
2024-02-22T06:13:55.627Z,78.63
2024-02-22T06:14:57.892Z,78.68
2024-02-22T06:16:00.140Z,78.31
2024-02-22T06:17:02.446Z,78.27
2024-02-22T06:18:05.117Z,78.04
2024-02-22T06:19:07.515Z,77.89
2024-02-22T06:20:10.608Z,77.84
2024-02-22T06:21:12.910Z,77.90
2024-02-22T06:22:15.213Z,77.81
2024-02-22T06:23:17.528Z,77.86
2024-02-22T06:24:19.757Z,77.81
2024-02-22T06:25:22.052Z,77.82
2024-02-22T06:26:24.847Z,77.89
2024-02-22T06:27:27.376Z,77.70
2024-02-22T06:28:29.604Z,77.48
2024-02-22T06:29:32.066Z,77.55
2024-02-22T06:30:34.294Z,77.47
2024-02-22T06:31:36.682Z,77.51
2024-02-22T06:32:39.092Z,77.58
2024-02-22T06:33:41.473Z,77.38
2024-02-22T06:34:44.307Z,77.05
2024-02-22T06:35:46.689Z,77.15
2024-02-22T06:36:49.037Z,77.04
2024-02-22T06:37:52.528Z,77.17
2024-02-22T06:38:55.187Z,77.17
2024-02-22T06:39:57.515Z,76.96
2024-02-22T06:40:59.945Z,76.91
2024-02-22T06:42:03.235Z,76.97
2024-02-22T06:43:06.559Z,76.80
2024-02-22T06:44:08.889Z,76.56
2024-02-22T06:45:11.218Z,76.33
2024-02-22T06:46:13.532Z,76.18
2024-02-22T06:47:16.558Z,76.10
2024-02-22T06:48:19.041Z,75.88
2024-02-22T06:49:21.336Z,75.85
2024-02-22T06:50:24.615Z,75.71
2024-02-22T06:51:26.929Z,74.99
2024-02-22T06:52:29.249Z,74.98
2024-02-22T06:53:31.493Z,74.96
2024-02-22T06:54:34.580Z,74.74
2024-02-22T06:55:36.926Z,74.96
2024-02-22T06:56:40.230Z,74.42
2024-02-22T06:57:42.452Z,74.38
2024-02-22T06:58:44.715Z,74.08
2024-02-22T06:59:47.012Z,73.88
2024-02-22T07:00:50.020Z,73.65
2024-02-22T07:01:52.333Z,73.54
2024-02-22T07:02:55.424Z,73.45
2024-02-22T07:03:58.452Z,73.53
2024-02-22T07:05:00.806Z,73.23
2024-02-22T07:06:03.125Z,73.19
2024-02-22T07:07:05.400Z,73.08
2024-02-22T07:08:07.971Z,72.72
2024-02-22T07:09:10.346Z,72.56
2024-02-22T07:10:16.301Z,72.56
2024-02-22T07:11:18.641Z,72.17
2024-02-22T07:12:21.028Z,72.42
2024-02-22T07:13:23.312Z,72.00
2024-02-22T07:14:25.693Z,72.11
2024-02-22T07:15:27.971Z,71.47
2024-02-22T07:16:30.655Z,71.70
2024-02-22T07:17:33.020Z,71.71
2024-02-22T07:18:35.420Z,71.42
2024-02-22T07:19:37.788Z,71.30
2024-02-22T07:20:40.140Z,71.06
2024-02-22T07:21:42.445Z,70.44
2024-02-22T07:22:46.756Z,70.67
2024-02-22T07:23:49.114Z,70.63
2024-02-22T07:24:51.386Z,70.60
2024-02-22T07:25:53.722Z,70.38
2024-02-22T07:26:56.072Z,70.53
2024-02-22T07:27:58.415Z,70.60
2024-02-22T07:29:01.266Z,70.65
2024-02-22T07:30:03.719Z,70.48
2024-02-22T07:31:06.496Z,70.15
2024-02-22T07:32:09.543Z,70.42
2024-02-22T07:33:12.050Z,69.98
2024-02-22T07:34:14.405Z,69.85
2024-02-22T07:35:18.522Z,69.92
2024-02-22T07:36:20.851Z,70.16
2024-02-22T07:37:23.107Z,69.84
2024-02-22T07:38:25.748Z,69.56
2024-02-22T07:39:28.560Z,69.73
2024-02-22T07:40:30.788Z,69.62
2024-02-22T07:41:33.028Z,69.35
2024-02-22T07:42:35.287Z,69.50
2024-02-22T07:43:37.553Z,69.23
2024-02-22T07:44:44.303Z,69.33
2024-02-22T07:45:46.548Z,68.71
2024-02-22T07:46:48.837Z,68.43
2024-02-22T07:47:51.164Z,68.76
2024-02-22T07:48:53.502Z,68.81
2024-02-22T07:49:55.770Z,68.67
2024-02-22T07:51:00.630Z,68.59
2024-02-22T07:52:02.748Z,68.61
2024-02-22T07:53:07.341Z,68.56
2024-02-22T07:54:09.644Z,68.92
2024-02-22T07:55:11.883Z,68.65
2024-02-22T07:56:14.255Z,68.33
2024-02-22T07:57:16.562Z,67.92
2024-02-22T07:58:19.420Z,68.26
2024-02-22T07:59:21.898Z,68.23
2024-02-22T08:00:24.233Z,68.08
2024-02-22T08:01:26.542Z,67.58
2024-02-22T08:02:29.458Z,67.32
2024-02-22T08:03:31.780Z,67.21
2024-02-22T08:04:34.266Z,67.03
2024-02-22T08:05:36.729Z,67.20
2024-02-22T08:06:39.055Z,67.18
2024-02-22T08:07:41.807Z,67.10
2024-02-22T08:08:44.415Z,67.06
2024-02-22T08:09:46.705Z,66.87
2024-02-22T08:10:49.098Z,65.91
2024-02-22T08:11:51.467Z,66.21
2024-02-22T08:12:54.322Z,65.80
2024-02-22T08:13:56.644Z,65.90
2024-02-22T08:14:59.700Z,65.69
2024-02-22T08:16:09.703Z,65.30
2024-02-22T08:17:12.054Z,65.35
2024-02-22T08:18:14.394Z,65.35
2024-02-22T08:19:16.682Z,65.05
2024-02-22T08:20:19.206Z,64.65
2024-02-22T08:21:21.624Z,64.29
2024-02-22T08:22:23.910Z,64.35
2024-02-22T08:23:26.474Z,63.82
2024-02-22T08:24:28.738Z,63.60
2024-02-22T08:25:30.968Z,63.48
2024-02-22T08:26:33.196Z,63.55
2024-02-22T08:27:38.414Z,63.38
2024-02-22T08:28:45.184Z,63.41
2024-02-22T08:29:52.289Z,63.66
2024-02-22T08:30:54.760Z,63.19
2024-02-22T08:31:57.221Z,62.51
2024-02-22T08:33:00.176Z,62.20
2024-02-22T08:34:02.658Z,61.92
2024-02-22T08:35:06.887Z,61.96
2024-02-22T08:36:09.293Z,61.55
2024-02-22T08:37:11.787Z,61.61
2024-02-22T08:38:14.421Z,61.50
2024-02-22T08:39:19.479Z,62.16
2024-02-22T08:40:31.341Z,62.80
2024-02-22T08:41:41.381Z,63.13
2024-02-22T08:42:43.693Z,62.68
2024-02-22T08:43:46.104Z,62.90
2024-02-22T08:44:48.472Z,62.94
2024-02-22T08:45:52.314Z,63.13
2024-02-22T08:46:54.671Z,63.23
2024-02-22T08:47:57.068Z,63.37
2024-02-22T08:48:59.445Z,63.09
2024-02-22T08:50:01.790Z,63.02
2024-02-22T08:51:04.701Z,63.34
2024-02-22T08:52:07.652Z,63.23
2024-02-22T08:53:10.225Z,63.54
2024-02-22T08:54:12.553Z,62.99
2024-02-22T08:55:15.107Z,63.56
2024-02-22T08:56:17.444Z,63.36
2024-02-22T08:57:19.777Z,63.12
2024-02-22T08:58:22.039Z,63.17
2024-02-22T08:59:25.151Z,63.06
2024-02-22T09:00:27.527Z,63.14
2024-02-22T09:01:31.312Z,63.03
2024-02-22T09:02:33.814Z,62.64
2024-02-22T09:03:36.184Z,62.27
2024-02-22T09:04:38.539Z,62.07
2024-02-22T09:05:42.849Z,62.06
2024-02-22T09:06:45.285Z,61.74
2024-02-22T09:07:51.924Z,60.85
2024-02-22T09:08:54.920Z,61.47
2024-02-22T09:09:58.097Z,60.97
2024-02-22T09:11:00.446Z,60.01
2024-02-22T09:12:03.986Z,59.48
2024-02-22T09:13:06.300Z,59.13
2024-02-22T09:14:08.709Z,59.16
2024-02-22T09:15:12.882Z,58.86
2024-02-22T09:16:15.239Z,58.77
2024-02-22T09:17:17.604Z,58.59
2024-02-22T09:18:20.545Z,58.78
2024-02-22T09:19:24.664Z,59.09
2024-02-22T09:20:28.812Z,58.56
2024-02-22T09:21:31.732Z,58.30
2024-02-22T09:22:34.291Z,57.97
2024-02-22T09:23:36.723Z,58.01
2024-02-22T09:24:44.885Z,57.18
2024-02-22T09:25:47.629Z,56.07
2024-02-22T09:26:49.871Z,55.73
2024-02-22T09:27:52.160Z,56.05
2024-02-22T09:28:54.803Z,55.14
2024-02-22T09:29:59.518Z,55.30
2024-02-22T09:31:02.052Z,55.09
2024-02-22T09:32:04.843Z,54.99
2024-02-22T09:33:09.379Z,55.12
2024-02-22T09:34:11.816Z,55.02
2024-02-22T09:35:14.502Z,54.53
2024-02-22T09:36:18.347Z,53.86
2024-02-22T09:37:21.237Z,53.24
2024-02-22T09:38:23.568Z,53.46
2024-02-22T09:39:25.862Z,53.35
2024-02-22T09:40:28.301Z,52.79
2024-02-22T09:41:31.229Z,52.45
2024-02-22T09:42:33.626Z,52.54
2024-02-22T09:43:37.429Z,52.65
2024-02-22T09:44:39.911Z,52.65
2024-02-22T09:45:44.366Z,52.49
2024-02-22T09:46:55.347Z,51.92
2024-02-22T09:47:58.062Z,51.07
2024-02-22T09:49:00.471Z,51.61
2024-02-22T09:50:03.970Z,50.29
2024-02-22T09:51:07.036Z,49.97
2024-02-22T09:52:11.293Z,49.14
2024-02-22T09:53:13.769Z,48.47
2024-02-22T09:54:16.691Z,48.86
2024-02-22T09:55:20.074Z,48.68
2024-02-22T09:56:22.404Z,48.92
2024-02-22T09:57:24.651Z,47.77
2024-02-22T09:58:26.872Z,47.40
2024-02-22T09:59:29.117Z,46.26
2024-02-22T10:00:31.394Z,45.67
2024-02-22T10:01:34.454Z,44.98
2024-02-22T10:02:37.339Z,45.63
2024-02-22T10:03:41.613Z,44.22
2024-02-22T10:04:57.588Z,44.71
2024-02-22T10:06:00.362Z,45.98
2024-02-22T10:07:03.764Z,46.16
2024-02-22T10:08:13.522Z,45.92
2024-02-22T10:09:15.992Z,46.08
2024-02-22T10:10:25.924Z,46.14
2024-02-22T10:11:28.610Z,46.31
2024-02-22T10:12:35.279Z,46.92
2024-02-22T10:13:38.724Z,47.35
2024-02-22T10:14:41.525Z,46.88
2024-02-22T10:15:43.802Z,46.22
2024-02-22T10:16:47.212Z,45.71
2024-02-22T10:17:49.740Z,45.88
2024-02-22T10:18:52.132Z,45.30
2024-02-22T10:19:58.263Z,44.93
2024-02-22T10:21:00.595Z,44.79
2024-02-22T10:22:04.522Z,44.10
2024-02-22T10:23:10.340Z,44.33
2024-02-22T10:24:12.740Z,43.76
2024-02-22T10:25:18.394Z,44.48
2024-02-22T10:26:20.690Z,44.08
2024-02-22T10:27:26.413Z,44.03
2024-02-22T10:28:28.699Z,45.38
2024-02-22T10:29:31.216Z,45.07
2024-02-22T10:30:34.344Z,44.70
2024-02-22T10:31:49.178Z,44.33
2024-02-22T10:32:52.671Z,44.52
2024-02-22T10:33:55.648Z,44.88
2024-02-22T10:34:58.145Z,45.90
2024-02-22T10:36:01.068Z,45.43
2024-02-22T10:37:05.541Z,45.54
2024-02-22T10:38:11.002Z,45.63
2024-02-22T10:39:14.547Z,45.52
2024-02-22T10:40:19.387Z,44.99
2024-02-22T10:41:23.266Z,45.41
2024-02-22T10:42:26.932Z,44.83
2024-02-22T10:43:29.605Z,44.95
2024-02-22T10:44:31.844Z,45.19
2024-02-22T10:45:35.445Z,45.29
2024-02-22T10:46:38.941Z,44.67
2024-02-22T10:47:41.976Z,44.20
2024-02-22T10:48:47.219Z,44.40
2024-02-22T10:49:49.936Z,43.77
2024-02-22T10:50:53.105Z,43.94
2024-02-22T10:51:56.063Z,43.76
2024-02-22T10:52:59.580Z,44.20
2024-02-22T10:54:04.548Z,43.86
2024-02-22T10:55:11.167Z,43.71
2024-02-22T10:56:16.432Z,44.29
2024-02-22T10:57:19.854Z,43.75
2024-02-22T10:58:25.343Z,43.14
2024-02-22T10:59:30.039Z,43.24
2024-02-22T11:00:33.539Z,42.56
2024-02-22T11:01:38.813Z,42.63
2024-02-22T11:02:42.070Z,41.60
2024-02-22T11:03:45.573Z,41.25
2024-02-22T11:04:48.061Z,40.70
2024-02-22T11:05:53.069Z,40.44
2024-02-22T11:06:55.391Z,40.95
2024-02-22T11:07:59.142Z,40.80
2024-02-22T11:09:01.915Z,40.64
2024-02-22T11:10:10.858Z,39.93
2024-02-22T11:11:13.210Z,40.31
2024-02-22T11:12:15.546Z,40.71
2024-02-22T11:13:18.187Z,41.27
2024-02-22T11:14:30.368Z,41.36
2024-02-22T11:15:37.418Z,40.87
2024-02-22T11:16:42.089Z,40.87
2024-02-22T11:17:55.016Z,40.55
2024-02-22T11:19:10.901Z,41.64
2024-02-22T11:20:13.492Z,42.52
2024-02-22T11:21:15.897Z,42.85
2024-02-22T11:22:21.859Z,43.19
2024-02-22T11:23:25.787Z,43.61
2024-02-22T11:24:29.565Z,43.28
2024-02-22T11:25:32.156Z,43.45
2024-02-22T11:26:35.538Z,43.41
2024-02-22T11:27:40.421Z,44.34
2024-02-22T11:28:42.711Z,44.91
2024-02-22T11:29:45.133Z,45.62
2024-02-22T11:30:48.102Z,45.77
2024-02-22T11:31:50.918Z,46.13
2024-02-22T11:32:53.391Z,46.05
2024-02-22T11:33:59.038Z,45.85
2024-02-22T11:35:01.342Z,45.28
2024-02-22T11:36:04.518Z,45.73
2024-02-22T11:37:18.410Z,45.69
2024-02-22T11:38:21.469Z,45.37
2024-02-22T11:39:24.294Z,45.94
2024-02-22T11:40:31.809Z,46.00
2024-02-22T11:41:34.412Z,46.49
2024-02-22T11:42:37.155Z,46.52
2024-02-22T11:43:39.616Z,46.61
2024-02-22T11:44:42.716Z,46.79
2024-02-22T11:46:04.026Z,47.15
2024-02-22T11:47:07.697Z,47.30
2024-02-22T11:48:10.100Z,47.57
2024-02-22T11:49:12.612Z,47.75
2024-02-22T11:50:16.139Z,47.79
2024-02-22T11:51:18.422Z,47.92
2024-02-22T11:52:22.924Z,47.72
2024-02-22T11:53:25.250Z,47.70
2024-02-22T11:54:27.978Z,47.48
2024-02-22T11:55:30.209Z,47.34
2024-02-22T11:56:32.454Z,47.48
2024-02-22T11:57:34.979Z,47.28
2024-02-22T11:58:40.194Z,47.37
2024-02-22T11:59:43.690Z,47.36
2024-02-22T12:00:46.279Z,47.75
2024-02-22T12:01:48.810Z,47.64
2024-02-22T12:02:51.364Z,47.28
2024-02-22T12:03:54.103Z,47.19
2024-02-22T12:04:56.844Z,47.74
2024-02-22T12:05:59.705Z,47.34
2024-02-22T12:07:03.313Z,47.64
2024-02-22T12:08:06.262Z,47.96
2024-02-22T12:09:13.915Z,47.53
2024-02-22T12:10:17.457Z,47.96
2024-02-22T12:11:20.369Z,48.58
2024-02-22T12:12:26.891Z,48.10
2024-02-22T12:13:29.996Z,48.02
2024-02-22T12:14:32.546Z,47.94
2024-02-22T12:15:34.818Z,48.15
2024-02-22T12:16:40.551Z,48.74
2024-02-22T12:17:42.995Z,48.47
2024-02-22T12:18:45.584Z,48.61
2024-02-22T12:19:47.829Z,48.61
2024-02-22T12:20:50.070Z,48.75
2024-02-22T12:21:52.630Z,48.96
2024-02-22T12:22:56.416Z,49.24
2024-02-22T12:23:59.746Z,48.93
2024-02-22T12:25:02.022Z,49.19
2024-02-22T12:26:07.815Z,49.46
2024-02-22T12:27:13.667Z,49.61
2024-02-22T12:28:15.908Z,49.62
2024-02-22T12:29:18.227Z,49.07
2024-02-22T12:30:21.092Z,49.40
2024-02-22T12:31:23.557Z,49.23
2024-02-22T12:32:25.951Z,48.90
2024-02-22T12:33:28.393Z,48.74
2024-02-22T12:34:30.882Z,49.14
2024-02-22T12:35:33.252Z,48.68
2024-02-22T12:36:35.593Z,48.77
2024-02-22T12:37:37.900Z,48.55
2024-02-22T12:38:40.136Z,48.42
2024-02-22T12:39:42.622Z,48.28
2024-02-22T12:40:46.034Z,47.99
2024-02-22T12:41:48.394Z,48.08
2024-02-22T12:42:57.004Z,47.85
2024-02-22T12:43:59.330Z,47.51
2024-02-22T12:45:01.606Z,47.97
2024-02-22T12:46:04.262Z,47.62
2024-02-22T12:47:12.321Z,47.87
2024-02-22T12:48:14.705Z,48.24
2024-02-22T12:49:17.090Z,47.88
2024-02-22T12:50:19.374Z,48.79
2024-02-22T12:51:22.123Z,48.95
2024-02-22T12:52:24.469Z,48.98
2024-02-22T12:53:27.275Z,49.38
2024-02-22T12:54:29.560Z,49.52
2024-02-22T12:55:31.845Z,49.52
2024-02-22T12:56:34.177Z,49.83
2024-02-22T12:57:36.457Z,49.96
2024-02-22T12:58:38.719Z,49.99
2024-02-22T12:59:42.185Z,49.78
2024-02-22T13:00:44.627Z,50.36
2024-02-22T13:01:49.343Z,50.17
2024-02-22T13:02:51.832Z,49.98
2024-02-22T13:03:54.140Z,49.95
2024-02-22T13:04:56.494Z,50.34
2024-02-22T13:05:58.964Z,50.20
2024-02-22T13:07:01.461Z,50.07
2024-02-22T13:08:10.760Z,50.09
2024-02-22T13:09:15.489Z,49.90
2024-02-22T13:10:19.228Z,50.33
2024-02-22T13:11:21.749Z,49.60
2024-02-22T13:12:24.080Z,49.97
2024-02-22T13:13:26.569Z,49.75
2024-02-22T13:14:28.895Z,49.61
2024-02-22T13:15:31.852Z,49.78
2024-02-22T13:16:36.247Z,48.59
2024-02-22T13:17:39.060Z,47.75
2024-02-22T13:18:41.406Z,46.40
2024-02-22T13:19:43.765Z,45.38
2024-02-22T13:20:46.016Z,44.94
2024-02-22T13:21:48.258Z,44.34
2024-02-22T13:22:50.557Z,44.37
2024-02-22T13:23:52.904Z,43.72
2024-02-22T13:24:55.141Z,43.37
2024-02-22T13:25:58.815Z,43.27
2024-02-22T13:27:01.434Z,43.15
2024-02-22T13:28:03.839Z,42.95
2024-02-22T13:29:06.103Z,43.24
2024-02-22T13:30:11.669Z,43.21
2024-02-22T13:31:14.088Z,43.33
2024-02-22T13:32:16.393Z,43.22
2024-02-22T13:33:18.704Z,43.04